createdAt,value
2019-02-25T00:00:55.300Z,14.65
2019-02-25T00:03:26.465Z,15.13
2019-02-25T00:05:56.949Z,14.73
2019-02-25T00:08:26.481Z,14.07
2019-02-25T00:10:55.930Z,14.38
2019-02-25T00:13:25.510Z,14.43
2019-02-25T00:15:54.936Z,14.58
2019-02-25T00:18:24.477Z,14.60
2019-02-25T00:20:54.032Z,14.25
2019-02-25T00:23:24.449Z,14.13
2019-02-25T00:25:53.898Z,14.30
2019-02-25T00:28:23.306Z,15.30
2019-02-25T00:30:53.111Z,15.48
2019-02-25T00:33:22.579Z,14.23
2019-02-25T00:35:52.111Z,14.68
2019-02-25T00:38:21.588Z,13.85
2019-02-25T00:40:51.326Z,14.35
2019-02-25T00:43:20.858Z,14.15
2019-02-25T00:45:50.269Z,14.30
2019-02-25T00:48:19.743Z,14.65
2019-02-25T00:50:49.235Z,13.93
2019-02-25T00:53:18.695Z,14.28
2019-02-25T00:55:48.185Z,13.15
2019-02-25T00:58:17.643Z,13.50
2019-02-25T01:00:47.102Z,14.00
2019-02-25T01:03:16.564Z,13.87
2019-02-25T01:05:45.999Z,13.53
2019-02-25T01:08:15.455Z,13.60
2019-02-25T01:10:44.973Z,13.80
2019-02-25T01:13:14.537Z,13.10
2019-02-25T01:15:43.945Z,13.40
2019-02-25T01:18:13.407Z,12.90
2019-02-25T01:20:42.855Z,12.65
2019-02-25T01:23:12.324Z,12.97
2019-02-25T01:25:41.787Z,12.33
2019-02-25T01:28:11.267Z,12.28
2019-02-25T01:30:40.659Z,13.35
2019-02-25T01:33:10.206Z,13.10
2019-02-25T01:35:39.732Z,12.25
2019-02-25T01:38:10.080Z,12.25
2019-02-25T01:40:39.499Z,12.63
2019-02-25T01:43:09.076Z,12.08
2019-02-25T01:45:38.477Z,13.15
2019-02-25T01:48:08.060Z,12.33
2019-02-25T01:50:37.545Z,12.75
2019-02-25T01:53:07.081Z,12.85
2019-02-25T01:55:36.496Z,12.93
2019-02-25T01:58:06.025Z,12.37
2019-02-25T02:00:35.608Z,12.47
2019-02-25T02:03:05.009Z,12.90
2019-02-25T02:05:34.503Z,12.40
2019-02-25T02:08:04.427Z,13.10
2019-02-25T02:10:33.896Z,14.07
2019-02-25T02:13:03.384Z,13.05
2019-02-25T02:15:32.850Z,14.00
2019-02-25T02:18:02.342Z,13.48
2019-02-25T02:20:31.801Z,13.25
2019-02-25T02:23:01.212Z,13.58
2019-02-25T02:25:31.717Z,13.83
2019-02-25T02:28:01.164Z,13.25
2019-02-25T02:30:30.828Z,13.70
2019-02-25T02:33:00.278Z,12.93
2019-02-25T02:35:29.701Z,13.25
2019-02-25T02:37:59.155Z,13.72
2019-02-25T02:40:28.563Z,13.15
2019-02-25T02:43:01.637Z,13.30
2019-02-25T02:45:40.252Z,14.28
2019-02-25T02:48:12.952Z,12.07
2019-02-25T02:50:42.427Z,12.53
2019-02-25T02:53:11.841Z,11.50
2019-02-25T02:55:41.319Z,12.78
2019-02-25T02:58:10.888Z,12.63
2019-02-25T03:00:40.440Z,12.93
2019-02-25T03:03:09.925Z,12.85
2019-02-25T03:05:39.436Z,12.67
2019-02-25T03:08:08.871Z,12.60
2019-02-25T03:10:38.319Z,12.98
2019-02-25T03:13:08.617Z,13.54
2019-02-25T03:15:38.158Z,12.65
2019-02-25T03:18:07.586Z,13.30
2019-02-25T03:20:37.137Z,13.13
2019-02-25T03:23:07.559Z,13.55
2019-02-25T03:25:37.037Z,12.37
2019-02-25T03:28:06.615Z,12.80
2019-02-25T03:30:36.089Z,12.85
2019-02-25T03:33:05.688Z,12.58
2019-02-25T03:35:35.206Z,11.70
2019-02-25T03:38:04.867Z,12.80
2019-02-25T03:40:34.392Z,13.00
2019-02-25T03:43:04.506Z,13.25
2019-02-25T03:45:33.964Z,12.53
2019-02-25T03:48:04.526Z,13.15
2019-02-25T03:50:33.973Z,13.55
2019-02-25T03:53:04.431Z,12.95
2019-02-25T03:55:34.236Z,13.22
2019-02-25T03:58:04.495Z,12.82
2019-02-25T04:00:33.949Z,13.25
2019-02-25T04:03:04.593Z,12.55
2019-02-25T04:05:34.216Z,11.93
2019-02-25T04:08:04.540Z,12.88
2019-02-25T04:10:33.989Z,12.73
2019-02-25T04:13:04.306Z,12.33
2019-02-25T04:15:38.063Z,12.68
2019-02-25T04:18:07.492Z,12.05
2019-02-25T04:20:38.437Z,11.15
2019-02-25T04:23:07.929Z,12.30
2019-02-25T04:25:37.405Z,12.60
2019-02-25T04:28:08.244Z,12.04
2019-02-25T04:30:37.695Z,11.48
2019-02-25T04:33:07.190Z,11.83
2019-02-25T04:35:36.691Z,11.70
2019-02-25T04:38:07.075Z,12.55
2019-02-25T04:40:36.643Z,12.63
2019-02-25T04:43:06.057Z,11.65
2019-02-25T04:45:35.520Z,12.65
2019-02-25T04:48:04.999Z,12.23
2019-02-25T04:50:34.454Z,12.55
2019-02-25T04:53:04.385Z,11.95
2019-02-25T04:55:33.840Z,12.18
2019-02-25T04:58:03.314Z,12.25
2019-02-25T05:00:32.731Z,12.05
2019-02-25T05:03:02.257Z,12.15
2019-02-25T05:05:31.699Z,12.00
2019-02-25T05:08:01.159Z,12.37
2019-02-25T05:10:30.614Z,12.60
2019-02-25T05:13:06.893Z,11.95
2019-02-25T05:15:37.319Z,12.10
2019-02-25T05:18:06.730Z,12.18
2019-02-25T05:20:36.304Z,11.68
2019-02-25T05:23:05.775Z,12.05
2019-02-25T05:25:35.183Z,12.13
2019-02-25T05:28:04.592Z,11.45
2019-02-25T05:30:34.040Z,10.63
2019-02-25T05:33:04.396Z,11.62
2019-02-25T05:35:33.876Z,11.30
2019-02-25T05:38:03.354Z,11.38
2019-02-25T05:40:32.886Z,10.78
2019-02-25T05:43:02.691Z,9.75
2019-02-25T05:45:32.138Z,11.03
2019-02-25T05:48:01.879Z,12.78
2019-02-25T05:50:31.279Z,11.78
2019-02-25T05:53:00.752Z,11.55
2019-02-25T05:55:30.208Z,10.48
2019-02-25T05:57:59.640Z,10.10
2019-02-25T06:00:30.729Z,9.95
2019-02-25T06:03:00.222Z,9.93
2019-02-25T06:05:29.963Z,10.38
2019-02-25T06:07:59.727Z,10.10
2019-02-25T06:10:29.183Z,12.78
2019-02-25T06:12:58.595Z,12.82
2019-02-25T06:15:28.001Z,12.90
2019-02-25T06:17:57.735Z,13.40
2019-02-25T06:20:27.138Z,13.58
2019-02-25T06:22:56.855Z,15.68
2019-02-25T06:25:26.276Z,14.63
2019-02-25T06:27:55.758Z,13.83
2019-02-25T06:30:25.171Z,13.72
2019-02-25T06:32:54.686Z,14.03
2019-02-25T06:35:24.100Z,14.45
2019-02-25T06:37:53.536Z,14.30
2019-02-25T06:40:22.990Z,14.73
2019-02-25T06:42:52.396Z,14.98
2019-02-25T06:45:24.746Z,14.40
2019-02-25T06:47:54.217Z,15.03
2019-02-25T06:50:23.674Z,16.52
2019-02-25T06:52:53.181Z,15.43
2019-02-25T06:55:22.863Z,14.73
2019-02-25T06:57:52.325Z,14.60
2019-02-25T07:00:22.978Z,13.95
2019-02-25T07:02:52.435Z,16.70
2019-02-25T07:05:23.499Z,12.85
2019-02-25T07:08:00.738Z,13.38
2019-02-25T07:10:43.845Z,13.72
2019-02-25T07:13:23.908Z,14.13
2019-02-25T07:16:01.330Z,14.05
2019-02-25T07:18:35.147Z,13.72
2019-02-25T07:21:12.044Z,17.23
2019-02-25T07:23:43.188Z,14.43
2019-02-25T07:26:30.507Z,15.03
2019-02-25T07:29:03.474Z,13.22
2019-02-25T07:31:36.780Z,20.12
2019-02-25T07:34:07.827Z,15.13
2019-02-25T07:36:39.739Z,13.40
2019-02-25T07:39:20.041Z,16.78
2019-02-25T07:41:51.143Z,12.47
2019-02-25T07:44:27.871Z,13.10
2019-02-25T07:47:04.863Z,15.13
2019-02-25T07:49:38.618Z,14.63
2019-02-25T07:52:21.740Z,11.68
2019-02-25T07:55:01.995Z,13.40
2019-02-25T07:57:44.970Z,13.45
2019-02-25T08:00:16.120Z,13.38
2019-02-25T08:02:59.140Z,12.50
2019-02-25T08:05:30.192Z,12.55
2019-02-25T08:08:01.290Z,12.40
2019-02-25T08:10:35.300Z,12.70
2019-02-25T08:13:09.307Z,12.68
2019-02-25T08:15:43.254Z,12.70
2019-02-25T08:18:14.360Z,13.40
2019-02-25T08:20:51.146Z,12.60
2019-02-25T08:23:27.903Z,13.75
2019-02-25T08:25:59.034Z,14.10
2019-02-25T08:28:35.858Z,12.93
2019-02-25T08:31:06.944Z,13.25
2019-02-25T08:33:55.494Z,13.85
2019-02-25T08:37:02.148Z,12.78
2019-02-25T08:39:43.768Z,12.88
2019-02-25T08:42:16.330Z,13.18
2019-02-25T08:44:50.160Z,13.50
2019-02-25T08:47:21.247Z,12.78
2019-02-25T08:49:53.278Z,12.65
2019-02-25T08:52:22.830Z,11.70
2019-02-25T08:54:52.399Z,11.57
2019-02-25T08:57:21.945Z,12.47
2019-02-25T08:59:51.524Z,12.05
2019-02-25T09:02:20.978Z,12.00
2019-02-25T09:04:50.458Z,13.43
2019-02-25T09:07:19.900Z,12.60
2019-02-25T09:09:49.307Z,11.45
2019-02-25T09:12:18.768Z,12.03
2019-02-25T09:14:48.243Z,12.45
2019-02-25T09:17:18.367Z,12.43
2019-02-25T09:19:47.859Z,12.68
2019-02-25T09:22:17.351Z,12.33
2019-02-25T09:24:46.883Z,15.50
2019-02-25T09:27:16.297Z,12.73
2019-02-25T09:29:45.747Z,13.58
2019-02-25T09:32:15.151Z,13.50
2019-02-25T09:34:44.612Z,13.13
2019-02-25T09:37:15.111Z,14.05
2019-02-25T09:39:44.540Z,13.40
2019-02-25T09:42:15.651Z,12.50
2019-02-25T09:44:45.090Z,11.65
2019-02-25T09:47:14.509Z,12.43
2019-02-25T09:49:44.017Z,11.70
2019-02-25T09:52:13.436Z,12.40
2019-02-25T09:54:42.915Z,12.23
2019-02-25T09:57:12.355Z,12.33
2019-02-25T09:59:41.868Z,11.85
2019-02-25T10:02:11.281Z,12.63
2019-02-25T10:04:40.753Z,12.85
2019-02-25T10:07:10.221Z,12.40
2019-02-25T10:09:39.670Z,12.13
2019-02-25T10:12:09.162Z,12.00
2019-02-25T10:14:38.696Z,14.10
2019-02-25T10:17:08.110Z,13.40
2019-02-25T10:19:37.576Z,13.03
2019-02-25T10:22:07.193Z,13.50
2019-02-25T10:24:36.625Z,12.95
2019-02-25T10:27:06.088Z,12.75
2019-02-25T10:29:35.555Z,14.43
2019-02-25T10:32:06.567Z,13.55
2019-02-25T10:34:36.274Z,13.43
2019-02-25T10:37:05.718Z,14.53
2019-02-25T10:39:35.147Z,14.33
2019-02-25T10:42:04.692Z,15.10
2019-02-25T10:44:36.055Z,15.15
2019-02-25T10:47:05.295Z,14.63
2019-02-25T10:49:34.776Z,15.48
2019-02-25T10:52:04.383Z,15.70
2019-02-25T10:54:34.886Z,14.58
2019-02-25T10:57:05.471Z,15.60
2019-02-25T10:59:36.758Z,15.23
2019-02-25T11:02:06.317Z,14.75
2019-02-25T11:04:35.748Z,16.32
2019-02-25T11:07:07.277Z,15.80
2019-02-25T11:09:39.867Z,15.78
2019-02-25T11:12:09.250Z,15.54
2019-02-25T11:14:40.960Z,14.33
2019-02-25T11:17:09.832Z,15.05
2019-02-25T11:19:39.745Z,15.20
2019-02-25T11:22:10.398Z,14.25
2019-02-25T11:24:40.432Z,14.63
2019-02-25T11:27:09.912Z,14.83
2019-02-25T11:29:40.490Z,13.60
2019-02-25T11:32:10.901Z,13.08
2019-02-25T11:34:40.420Z,13.75
2019-02-25T11:37:09.957Z,13.98
2019-02-25T11:39:39.432Z,13.43
2019-02-25T11:42:10.805Z,13.44
2019-02-25T11:44:40.221Z,12.93
2019-02-25T11:47:09.891Z,13.18
2019-02-25T11:49:39.366Z,14.15
2019-02-25T11:52:08.858Z,13.86
2019-02-25T11:54:38.314Z,13.95
2019-02-25T11:57:07.732Z,13.72
2019-02-25T11:59:37.211Z,13.35
2019-02-25T12:02:06.690Z,13.88
2019-02-25T12:04:36.153Z,13.78
2019-02-25T12:07:05.675Z,13.85
2019-02-25T12:09:35.281Z,12.58
2019-02-25T12:12:04.944Z,12.82
2019-02-25T12:14:35.364Z,12.82
2019-02-25T12:17:04.968Z,12.03
2019-02-25T12:19:34.416Z,12.60
2019-02-25T12:22:03.880Z,12.25
2019-02-25T12:24:33.341Z,13.93
2019-02-25T12:27:03.038Z,12.68
2019-02-25T12:29:32.576Z,12.65
2019-02-25T12:32:02.079Z,13.00
2019-02-25T12:34:32.500Z,13.10
2019-02-25T12:37:02.004Z,13.00
2019-02-25T12:39:31.566Z,13.40
2019-02-25T12:42:01.011Z,13.83
2019-02-25T12:44:30.548Z,13.53
2019-02-25T12:47:00.001Z,13.62
2019-02-25T12:49:29.453Z,13.53
2019-02-25T12:51:58.985Z,13.50
2019-02-25T12:54:28.454Z,13.05
2019-02-25T12:56:57.926Z,13.20
2019-02-25T12:59:27.344Z,12.87
2019-02-25T13:01:56.764Z,13.32
2019-02-25T13:04:26.231Z,12.20
2019-02-25T13:06:55.646Z,12.33
2019-02-25T13:09:25.178Z,12.10
2019-02-25T13:11:54.655Z,13.40
2019-02-25T13:14:24.124Z,12.88
2019-02-25T13:16:53.560Z,13.85
2019-02-25T13:19:23.043Z,12.85
2019-02-25T13:21:52.497Z,13.93
2019-02-25T13:24:21.939Z,14.27
2019-02-25T13:26:51.405Z,13.95
2019-02-25T13:29:20.828Z,13.72
2019-02-25T13:31:50.259Z,14.03
2019-02-25T13:34:19.855Z,13.88
2019-02-25T13:36:50.868Z,12.65
2019-02-25T13:39:20.312Z,11.83
2019-02-25T13:41:49.728Z,11.88
2019-02-25T13:44:19.193Z,12.30
2019-02-25T13:46:48.676Z,12.65
2019-02-25T13:49:18.097Z,12.82
2019-02-25T13:51:47.574Z,12.67
2019-02-25T13:54:17.045Z,13.93
2019-02-25T13:56:46.489Z,14.00
2019-02-25T13:59:15.909Z,14.68
2019-02-25T14:01:45.386Z,13.48
2019-02-25T14:04:14.848Z,14.83
2019-02-25T14:06:44.314Z,14.13
2019-02-25T14:09:14.435Z,12.17
2019-02-25T14:11:45.477Z,11.33
2019-02-25T14:14:14.981Z,12.60
2019-02-25T14:16:44.439Z,11.83
2019-02-25T14:19:13.914Z,11.55
2019-02-25T14:21:43.391Z,11.93
2019-02-25T14:24:12.912Z,11.75
2019-02-25T14:26:42.483Z,12.80
2019-02-25T14:29:11.909Z,11.70
2019-02-25T14:31:41.424Z,11.63
2019-02-25T14:34:10.881Z,12.67
2019-02-25T14:36:40.355Z,10.10
2019-02-25T14:39:18.158Z,10.26
2019-02-25T14:41:47.754Z,10.38
2019-02-25T14:44:17.753Z,11.18
2019-02-25T14:46:50.154Z,10.78
2019-02-25T14:49:19.659Z,11.35
2019-02-25T14:51:49.234Z,11.25
2019-02-25T14:54:18.845Z,11.10
2019-02-25T14:56:50.216Z,11.65
2019-02-25T14:59:20.299Z,11.03
2019-02-25T15:01:50.588Z,11.18
2019-02-25T15:04:20.101Z,11.60
2019-02-25T15:06:51.269Z,11.48
2019-02-25T15:09:20.752Z,11.33
2019-02-25T15:11:51.267Z,11.08
2019-02-25T15:14:21.492Z,11.60
2019-02-25T15:16:50.999Z,11.65
2019-02-25T15:19:20.679Z,11.23
2019-02-25T15:21:52.032Z,11.40
2019-02-25T15:24:21.387Z,11.13
2019-02-25T15:26:50.958Z,11.10
2019-02-25T15:29:20.473Z,11.80
2019-02-25T15:31:50.498Z,12.30
2019-02-25T15:34:21.119Z,12.47
2019-02-25T15:36:50.587Z,12.70
2019-02-25T15:39:20.255Z,12.47
2019-02-25T15:41:50.906Z,13.40
2019-02-25T15:44:21.014Z,12.85
2019-02-25T15:46:51.768Z,13.00
2019-02-25T15:49:22.287Z,12.50
2019-02-25T15:51:55.095Z,13.22
2019-02-25T15:54:24.646Z,13.43
2019-02-25T15:56:54.133Z,13.55
2019-02-25T15:59:31.932Z,12.13
2019-02-25T16:01:55.435Z,12.88
2019-02-25T16:04:25.545Z,13.20
2019-02-25T16:06:57.607Z,13.00
2019-02-25T16:09:29.351Z,13.38
2019-02-25T16:11:59.383Z,13.43
2019-02-25T16:14:30.055Z,12.95
2019-02-25T16:17:01.025Z,13.28
2019-02-25T16:19:39.945Z,13.22
2019-02-25T16:22:02.744Z,13.48
2019-02-25T16:24:33.046Z,13.58
2019-02-25T16:27:04.501Z,13.13
2019-02-25T16:29:34.274Z,13.83
2019-02-25T16:32:03.779Z,14.80
2019-02-25T16:34:34.053Z,13.25
2019-02-25T16:37:05.067Z,13.70
2019-02-25T16:39:34.524Z,14.40
2019-02-25T16:42:05.127Z,14.66
2019-02-25T16:44:34.679Z,14.50
2019-02-25T16:47:04.720Z,14.90
2019-02-25T16:49:36.019Z,14.87
2019-02-25T16:52:05.995Z,14.65
2019-02-25T16:54:35.676Z,13.55
2019-02-25T16:57:07.182Z,13.38
2019-02-25T16:59:36.490Z,15.23
2019-02-25T17:02:07.131Z,16.82
2019-02-25T17:04:37.434Z,16.07
2019-02-25T17:07:07.056Z,16.23
2019-02-25T17:09:38.679Z,16.60
2019-02-25T17:12:08.890Z,15.32
2019-02-25T17:14:40.501Z,16.80
2019-02-25T17:17:09.780Z,16.20
2019-02-25T17:19:39.383Z,15.55
2019-02-25T17:22:09.995Z,16.97
2019-02-25T17:24:39.890Z,17.10
2019-02-25T17:27:11.465Z,16.30
2019-02-25T17:29:41.190Z,15.38
2019-02-25T17:32:11.415Z,17.60
2019-02-25T17:34:41.485Z,15.23
2019-02-25T17:37:13.029Z,15.90
2019-02-25T17:39:43.606Z,14.95
2019-02-25T17:42:13.784Z,15.48
2019-02-25T17:44:43.479Z,15.60
2019-02-25T17:47:17.309Z,15.58
2019-02-25T17:49:44.405Z,15.93
2019-02-25T17:52:15.849Z,16.12
2019-02-25T17:54:45.479Z,15.38
2019-02-25T17:57:15.388Z,15.33
2019-02-25T17:59:46.364Z,15.50
2019-02-25T18:02:16.069Z,15.90
2019-02-25T18:04:47.047Z,15.60
2019-02-25T18:07:17.356Z,15.10
2019-02-25T18:09:47.241Z,17.80
2019-02-25T18:12:18.888Z,15.25
2019-02-25T18:14:48.112Z,15.15
2019-02-25T18:17:19.328Z,15.60
2019-02-25T18:19:50.170Z,15.45
2019-02-25T18:22:20.209Z,14.45
2019-02-25T18:24:56.367Z,14.57
2019-02-25T18:27:25.853Z,15.05
2019-02-25T18:29:57.033Z,13.62
2019-02-25T18:32:27.866Z,13.22
2019-02-25T18:34:58.842Z,14.23
2019-02-25T18:37:30.870Z,15.48
2019-02-25T18:40:00.425Z,13.38
2019-02-25T18:42:31.653Z,14.95
2019-02-25T18:45:01.369Z,15.25
2019-02-25T18:47:32.858Z,14.87
2019-02-25T18:50:02.442Z,14.95
2019-02-25T18:52:34.651Z,26.65
2019-02-25T18:55:08.999Z,15.43
2019-02-25T18:57:39.455Z,16.73
2019-02-25T19:00:24.225Z,15.45
2019-02-25T19:02:56.205Z,16.12
2019-02-25T19:05:28.800Z,15.08
2019-02-25T19:07:58.240Z,16.30
2019-02-25T19:10:28.434Z,14.85
2019-02-25T19:12:59.132Z,16.60
2019-02-25T19:15:29.679Z,15.88
2019-02-25T19:17:59.286Z,14.85
2019-02-25T19:20:28.909Z,17.50
2019-02-25T19:23:02.581Z,16.20
2019-02-25T19:25:29.739Z,16.00
2019-02-25T19:27:59.423Z,16.20
2019-02-25T19:30:29.797Z,15.70
2019-02-25T19:33:10.609Z,19.55
2019-02-25T19:35:32.964Z,20.40
2019-02-25T19:38:05.823Z,18.77
2019-02-25T19:40:40.269Z,20.75
2019-02-25T19:43:08.972Z,19.95
2019-02-25T19:45:40.584Z,20.23
2019-02-25T19:48:10.406Z,21.65
2019-02-25T19:50:50.614Z,20.88
2019-02-25T19:53:12.491Z,21.05
2019-02-25T19:55:43.937Z,21.65
2019-02-25T19:58:13.752Z,20.43
2019-02-25T20:00:44.439Z,20.43
2019-02-25T20:03:14.381Z,23.42
2019-02-25T20:05:46.005Z,21.10
2019-02-25T20:08:15.374Z,20.40
2019-02-25T20:10:44.951Z,20.60
2019-02-25T20:13:14.431Z,20.62
2019-02-25T20:15:44.917Z,21.23
2019-02-25T20:18:16.180Z,19.32
2019-02-25T20:20:46.564Z,20.37
2019-02-25T20:23:16.045Z,20.97
2019-02-25T20:25:48.499Z,19.70
2019-02-25T20:28:18.636Z,18.10
2019-02-25T20:30:49.365Z,18.65
2019-02-25T20:33:18.904Z,19.73
2019-02-25T20:35:51.267Z,19.52
2019-02-25T20:38:22.507Z,18.32
2019-02-25T20:40:51.211Z,17.75
2019-02-25T20:43:23.519Z,17.98
2019-02-25T20:45:54.655Z,18.48
2019-02-25T20:48:24.125Z,18.40
2019-02-25T20:50:53.671Z,18.85
2019-02-25T20:53:24.634Z,20.53
2019-02-25T20:55:55.057Z,20.50
2019-02-25T20:58:25.418Z,19.20
2019-02-25T21:00:54.884Z,18.65
2019-02-25T21:03:25.940Z,19.73
2019-02-25T21:05:56.768Z,20.90
2019-02-25T21:08:26.652Z,19.52
2019-02-25T21:10:56.262Z,20.77
2019-02-25T21:13:28.452Z,21.90
2019-02-25T21:15:58.305Z,20.90
2019-02-25T21:18:28.898Z,21.33
2019-02-25T21:20:59.170Z,20.60
2019-02-25T21:23:28.659Z,20.95
2019-02-25T21:26:00.228Z,20.48
2019-02-25T21:28:31.366Z,21.10
2019-02-25T21:31:00.411Z,19.92
2019-02-25T21:33:30.405Z,20.20
2019-02-25T21:36:01.119Z,19.82
2019-02-25T21:38:30.601Z,19.90
2019-02-25T21:41:00.173Z,19.85
2019-02-25T21:43:29.674Z,19.62
2019-02-25T21:46:01.456Z,20.88
2019-02-25T21:48:32.310Z,19.98
2019-02-25T21:51:02.928Z,21.57
2019-02-25T21:53:32.691Z,20.65
2019-02-25T21:56:04.737Z,19.70
2019-02-25T21:58:33.277Z,19.42
2019-02-25T22:01:02.860Z,20.08
2019-02-25T22:03:36.942Z,20.43
2019-02-25T22:06:04.908Z,20.32
2019-02-25T22:08:36.064Z,20.43
2019-02-25T22:11:12.383Z,20.85
2019-02-25T22:13:36.959Z,21.30
2019-02-25T22:16:08.033Z,22.30
2019-02-25T22:18:37.504Z,21.70
2019-02-25T22:21:09.197Z,20.02
2019-02-25T22:23:38.129Z,20.85
2019-02-25T22:26:07.555Z,21.82
2019-02-25T22:28:38.878Z,22.10
2019-02-25T22:31:10.633Z,21.20
2019-02-25T22:33:39.291Z,20.80
2019-02-25T22:36:08.752Z,19.00
2019-02-25T22:38:38.272Z,20.83
2019-02-25T22:41:07.735Z,20.48
2019-02-25T22:43:39.049Z,21.00
2019-02-25T22:46:11.128Z,21.07
2019-02-25T22:48:42.021Z,20.27
2019-02-25T22:51:10.695Z,21.67
2019-02-25T22:53:40.197Z,21.90
2019-02-25T22:56:13.397Z,21.73
2019-02-25T22:58:42.886Z,21.93
2019-02-25T23:01:17.052Z,20.48
2019-02-25T23:03:45.587Z,21.45
2019-02-25T23:06:15.863Z,20.47
2019-02-25T23:08:48.317Z,20.50
2019-02-25T23:11:19.818Z,21.17
2019-02-25T23:13:50.304Z,21.12
2019-02-25T23:16:22.738Z,20.95
2019-02-25T23:18:51.590Z,20.02
2019-02-25T23:21:24.209Z,20.67
2019-02-25T23:23:55.565Z,19.37
2019-02-25T23:26:23.515Z,20.60
2019-02-25T23:28:55.036Z,22.05
2019-02-25T23:31:24.072Z,22.07
2019-02-25T23:33:53.767Z,20.82
2019-02-25T23:36:24.600Z,20.40
2019-02-25T23:38:54.968Z,19.48
2019-02-25T23:41:25.524Z,19.07
2019-02-25T23:43:54.933Z,19.05
2019-02-25T23:46:27.289Z,20.30
2019-02-25T23:48:55.502Z,18.90
2019-02-25T23:51:24.979Z,19.85
2019-02-25T23:53:55.900Z,18.30
2019-02-25T23:56:27.412Z,19.05
2019-02-25T23:58:56.767Z,19.23
